sensor_id;sensor_type;location;lat;lon;timestamp;temperature;humidity
35690;DHT22;26977;44.830;-0.674;2022-11-15T00:00:47;12.30;99.90
35690;DHT22;26977;44.830;-0.674;2022-11-15T00:03:17;12.30;99.90
35690;DHT22;26977;44.830;-0.674;2022-11-15T00:05:44;12.30;99.90
35690;DHT22;26977;44.830;-0.674;2022-11-15T00:08:10;12.30;99.90
35690;DHT22;26977;44.830;-0.674;2022-11-15T00:10:36;12.30;99.90
35690;DHT22;26977;44.830;-0.674;2022-11-15T00:13:12;12.30;99.90
35690;DHT22;26977;44.830;-0.674;2022-11-15T00:15:40;12.20;99.90
35690;DHT22;26977;44.830;-0.674;2022-11-15T00:18:14;12.20;99.90
35690;DHT22;26977;44.830;-0.674;2022-11-15T00:20:40;12.20;99.90
35690;DHT22;26977;44.830;-0.674;2022-11-15T00:23:06;12.20;99.90
35690;DHT22;26977;44.830;-0.674;2022-11-15T00:25:32;12.20;99.90
35690;DHT22;26977;44.830;-0.674;2022-11-15T00:27:59;12.20;99.90
35690;DHT22;26977;44.830;-0.674;2022-11-15T00:30:25;12.20;99.90
35690;DHT22;26977;44.830;-0.674;2022-11-15T00:32:51;12.20;99.90
35690;DHT22;26977;44.830;-0.674;2022-11-15T00:35:18;12.20;99.90
35690;DHT22;26977;44.830;-0.674;2022-11-15T00:37:43;12.20;99.90
35690;DHT22;26977;44.830;-0.674;2022-11-15T00:40:10;12.10;99.90
35690;DHT22;26977;44.830;-0.674;2022-11-15T00:42:36;12.10;99.90
35690;DHT22;26977;44.830;-0.674;2022-11-15T00:45:02;12.00;99.90
35690;DHT22;26977;44.830;-0.674;2022-11-15T00:47:28;12.10;99.90
35690;DHT22;26977;44.830;-0.674;2022-11-15T00:49:53;12.00;99.90
35690;DHT22;26977;44.830;-0.674;2022-11-15T00:52:19;12.00;99.90
35690;DHT22;26977;44.830;-0.674;2022-11-15T00:54:45;12.00;99.90
35690;DHT22;26977;44.830;-0.674;2022-11-15T00:57:11;12.00;99.90
35690;DHT22;26977;44.830;-0.674;2022-11-15T00:59:37;12.00;99.90
35690;DHT22;26977;44.830;-0.674;2022-11-15T01:02:02;12.00;99.90
35690;DHT22;26977;44.830;-0.674;2022-11-15T01:04:28;11.90;99.90
35690;DHT22;26977;44.830;-0.674;2022-11-15T01:06:54;11.90;99.90
35690;DHT22;26977;44.830;-0.674;2022-11-15T01:09:19;11.90;99.90
35690;DHT22;26977;44.830;-0.674;2022-11-15T01:11:45;11.80;99.90
35690;DHT22;26977;44.830;-0.674;2022-11-15T01:14:11;11.80;99.90
35690;DHT22;26977;44.830;-0.674;2022-11-15T01:16:37;11.70;99.90
35690;DHT22;26977;44.830;-0.674;2022-11-15T01:19:03;11.60;99.90
35690;DHT22;26977;44.830;-0.674;2022-11-15T01:21:29;11.60;99.90
35690;DHT22;26977;44.830;-0.674;2022-11-15T01:23:56;11.50;99.90
35690;DHT22;26977;44.830;-0.674;2022-11-15T01:26:23;11.50;99.90
35690;DHT22;26977;44.830;-0.674;2022-11-15T01:28:49;11.50;99.90
35690;DHT22;26977;44.830;-0.674;2022-11-15T01:31:18;11.50;99.90
35690;DHT22;26977;44.830;-0.674;2022-11-15T01:33:44;11.40;99.90
35690;DHT22;26977;44.830;-0.674;2022-11-15T01:36:18;11.40;99.90
35690;DHT22;26977;44.830;-0.674;2022-11-15T01:38:44;11.40;99.90
35690;DHT22;26977;44.830;-0.674;2022-11-15T01:41:22;11.40;99.90
35690;DHT22;26977;44.830;-0.674;2022-11-15T01:47:05;11.40;99.90
35690;DHT22;26977;44.830;-0.674;2022-11-15T01:49:35;11.50;99.90
35690;DHT22;26977;44.830;-0.674;2022-11-15T01:52:04;11.50;99.90
35690;DHT22;26977;44.830;-0.674;2022-11-15T01:54:32;11.50;99.90
35690;DHT22;26977;44.830;-0.674;2022-11-15T01:57:09;11.50;99.90
35690;DHT22;26977;44.830;-0.674;2022-11-15T01:59:38;11.50;99.90
35690;DHT22;26977;44.830;-0.674;2022-11-15T02:02:05;11.50;99.90
35690;DHT22;26977;44.830;-0.674;2022-11-15T02:04:42;11.60;99.90
35690;DHT22;26977;44.830;-0.674;2022-11-15T02:07:10;11.60;99.90
35690;DHT22;26977;44.830;-0.674;2022-11-15T02:09:37;11.60;99.90
35690;DHT22;26977;44.830;-0.674;2022-11-15T02:12:03;11.60;99.90
35690;DHT22;26977;44.830;-0.674;2022-11-15T02:14:30;11.50;99.90
35690;DHT22;26977;44.830;-0.674;2022-11-15T02:25:57;11.50;99.90
35690;DHT22;26977;44.830;-0.674;2022-11-15T02:28:42;11.50;99.90
35690;DHT22;26977;44.830;-0.674;2022-11-15T02:33:52;11.50;99.90
35690;DHT22;26977;44.830;-0.674;2022-11-15T02:36:43;11.50;99.90
35690;DHT22;26977;44.830;-0.674;2022-11-15T02:42:25;11.40;99.90
35690;DHT22;26977;44.830;-0.674;2022-11-15T02:45:16;11.40;99.90
35690;DHT22;26977;44.830;-0.674;2022-11-15T02:47:45;11.40;99.90
35690;DHT22;26977;44.830;-0.674;2022-11-15T02:50:14;11.40;99.90
35690;DHT22;26977;44.830;-0.674;2022-11-15T02:52:44;11.40;99.90
35690;DHT22;26977;44.830;-0.674;2022-11-15T02:55:29;11.40;99.90
35690;DHT22;26977;44.830;-0.674;2022-11-15T03:01:23;11.40;99.90
35690;DHT22;26977;44.830;-0.674;2022-11-15T03:06:25;11.30;99.90
35690;DHT22;26977;44.830;-0.674;2022-11-15T03:11:35;11.20;99.90
35690;DHT22;26977;44.830;-0.674;2022-11-15T03:19:43;11.10;99.90
35690;DHT22;26977;44.830;-0.674;2022-11-15T03:22:12;11.10;99.90
35690;DHT22;26977;44.830;-0.674;2022-11-15T03:24:40;11.00;99.90
35690;DHT22;26977;44.830;-0.674;2022-11-15T03:27:09;11.10;99.90
35690;DHT22;26977;44.830;-0.674;2022-11-15T03:29:41;11.10;99.90
35690;DHT22;26977;44.830;-0.674;2022-11-15T03:32:19;11.20;99.90
35690;DHT22;26977;44.830;-0.674;2022-11-15T03:35:05;11.20;99.90
35690;DHT22;26977;44.830;-0.674;2022-11-15T03:40:03;11.20;99.90
35690;DHT22;26977;44.830;-0.674;2022-11-15T03:42:35;11.30;99.90
35690;DHT22;26977;44.830;-0.674;2022-11-15T03:45:17;11.30;99.90
35690;DHT22;26977;44.830;-0.674;2022-11-15T03:47:51;11.30;99.90
35690;DHT22;26977;44.830;-0.674;2022-11-15T03:50:20;11.30;99.90
35690;DHT22;26977;44.830;-0.674;2022-11-15T03:52:48;11.30;99.90
35690;DHT22;26977;44.830;-0.674;2022-11-15T03:55:19;11.30;99.90
35690;DHT22;26977;44.830;-0.674;2022-11-15T03:57:48;11.30;99.90
35690;DHT22;26977;44.830;-0.674;2022-11-15T04:00:14;11.40;99.90
35690;DHT22;26977;44.830;-0.674;2022-11-15T04:02:40;11.40;99.90
35690;DHT22;26977;44.830;-0.674;2022-11-15T04:05:06;11.40;99.90
35690;DHT22;26977;44.830;-0.674;2022-11-15T04:07:32;11.50;99.90
35690;DHT22;26977;44.830;-0.674;2022-11-15T04:09:57;11.50;99.90
35690;DHT22;26977;44.830;-0.674;2022-11-15T04:12:34;11.50;99.90
35690;DHT22;26977;44.830;-0.674;2022-11-15T04:15:08;11.50;99.90
35690;DHT22;26977;44.830;-0.674;2022-11-15T04:20:05;11.60;99.90
35690;DHT22;26977;44.830;-0.674;2022-11-15T04:22:53;11.60;99.90
35690;DHT22;26977;44.830;-0.674;2022-11-15T04:25:37;11.60;99.90
35690;DHT22;26977;44.830;-0.674;2022-11-15T04:28:03;11.50;99.90
35690;DHT22;26977;44.830;-0.674;2022-11-15T04:30:28;11.50;99.90
35690;DHT22;26977;44.830;-0.674;2022-11-15T04:32:54;11.50;99.90
35690;DHT22;26977;44.830;-0.674;2022-11-15T04:35:20;11.50;99.90
35690;DHT22;26977;44.830;-0.674;2022-11-15T04:37:45;11.50;99.90
35690;DHT22;26977;44.830;-0.674;2022-11-15T04:40:11;11.50;99.90
35690;DHT22;26977;44.830;-0.674;2022-11-15T04:42:37;11.50;99.90
35690;DHT22;26977;44.830;-0.674;2022-11-15T04:45:03;11.50;99.90
35690;DHT22;26977;44.830;-0.674;2022-11-15T04:47:28;11.60;99.90
35690;DHT22;26977;44.830;-0.674;2022-11-15T04:49:54;11.50;99.90
35690;DHT22;26977;44.830;-0.674;2022-11-15T04:52:20;11.50;99.90
35690;DHT22;26977;44.830;-0.674;2022-11-15T04:54:46;11.40;99.90
35690;DHT22;26977;44.830;-0.674;2022-11-15T04:57:11;11.50;99.90
35690;DHT22;26977;44.830;-0.674;2022-11-15T04:59:37;11.40;99.90
35690;DHT22;26977;44.830;-0.674;2022-11-15T05:02:03;11.40;99.90
35690;DHT22;26977;44.830;-0.674;2022-11-15T05:04:30;11.40;99.90
35690;DHT22;26977;44.830;-0.674;2022-11-15T05:06:55;11.40;99.90
35690;DHT22;26977;44.830;-0.674;2022-11-15T05:09:21;11.50;99.90
35690;DHT22;26977;44.830;-0.674;2022-11-15T05:11:47;11.40;99.90
35690;DHT22;26977;44.830;-0.674;2022-11-15T05:14:13;11.40;99.90
35690;DHT22;26977;44.830;-0.674;2022-11-15T05:16:39;11.40;99.90
35690;DHT22;26977;44.830;-0.674;2022-11-15T05:19:05;11.40;99.90
35690;DHT22;26977;44.830;-0.674;2022-11-15T05:21:32;11.40;99.90
35690;DHT22;26977;44.830;-0.674;2022-11-15T05:23:58;11.40;99.90
35690;DHT22;26977;44.830;-0.674;2022-11-15T05:26:24;11.40;99.90
35690;DHT22;26977;44.830;-0.674;2022-11-15T05:28:57;11.40;99.90
35690;DHT22;26977;44.830;-0.674;2022-11-15T05:31:24;11.50;99.90
35690;DHT22;26977;44.830;-0.674;2022-11-15T05:33:50;11.50;99.90
35690;DHT22;26977;44.830;-0.674;2022-11-15T05:36:38;11.50;99.90
35690;DHT22;26977;44.830;-0.674;2022-11-15T05:39:07;11.60;99.90
35690;DHT22;26977;44.830;-0.674;2022-11-15T05:44:08;11.60;99.90
35690;DHT22;26977;44.830;-0.674;2022-11-15T05:46:35;11.70;99.90
35690;DHT22;26977;44.830;-0.674;2022-11-15T05:49:04;11.70;99.90
35690;DHT22;26977;44.830;-0.674;2022-11-15T05:51:31;11.70;99.90
35690;DHT22;26977;44.830;-0.674;2022-11-15T05:53:58;11.80;99.90
35690;DHT22;26977;44.830;-0.674;2022-11-15T05:56:24;11.80;99.90
35690;DHT22;26977;44.830;-0.674;2022-11-15T05:58:55;11.80;99.90
35690;DHT22;26977;44.830;-0.674;2022-11-15T06:01:21;11.90;99.90
35690;DHT22;26977;44.830;-0.674;2022-11-15T06:03:48;11.90;99.90
35690;DHT22;26977;44.830;-0.674;2022-11-15T06:06:13;11.90;99.90
35690;DHT22;26977;44.830;-0.674;2022-11-15T06:08:39;12.00;99.90
35690;DHT22;26977;44.830;-0.674;2022-11-15T06:11:06;12.00;99.90
35690;DHT22;26977;44.830;-0.674;2022-11-15T06:13:32;12.00;99.90
35690;DHT22;26977;44.830;-0.674;2022-11-15T06:15:58;12.10;99.90
35690;DHT22;26977;44.830;-0.674;2022-11-15T06:18:24;12.10;99.90
35690;DHT22;26977;44.830;-0.674;2022-11-15T06:20:50;12.10;99.90
35690;DHT22;26977;44.830;-0.674;2022-11-15T06:23:16;12.20;99.90
35690;DHT22;26977;44.830;-0.674;2022-11-15T06:25:41;12.20;99.90
35690;DHT22;26977;44.830;-0.674;2022-11-15T06:28:08;12.20;99.90
35690;DHT22;26977;44.830;-0.674;2022-11-15T06:30:33;12.20;99.90
35690;DHT22;26977;44.830;-0.674;2022-11-15T06:33:04;12.20;99.90
35690;DHT22;26977;44.830;-0.674;2022-11-15T06:35:32;12.20;99.90
35690;DHT22;26977;44.830;-0.674;2022-11-15T06:38:04;12.20;99.90
35690;DHT22;26977;44.830;-0.674;2022-11-15T06:40:30;12.30;99.90
35690;DHT22;26977;44.830;-0.674;2022-11-15T06:42:59;12.30;99.90
35690;DHT22;26977;44.830;-0.674;2022-11-15T06:45:25;12.30;99.90
35690;DHT22;26977;44.830;-0.674;2022-11-15T06:47:50;12.30;99.90
35690;DHT22;26977;44.830;-0.674;2022-11-15T06:50:16;12.40;99.90
35690;DHT22;26977;44.830;-0.674;2022-11-15T06:52:42;12.30;99.90
35690;DHT22;26977;44.830;-0.674;2022-11-15T06:55:08;12.30;99.90
35690;DHT22;26977;44.830;-0.674;2022-11-15T06:57:33;12.30;99.90
35690;DHT22;26977;44.830;-0.674;2022-11-15T06:59:59;12.40;99.90
35690;DHT22;26977;44.830;-0.674;2022-11-15T07:02:25;12.40;99.90
35690;DHT22;26977;44.830;-0.674;2022-11-15T07:04:51;12.40;99.90
35690;DHT22;26977;44.830;-0.674;2022-11-15T07:07:16;12.40;99.90
35690;DHT22;26977;44.830;-0.674;2022-11-15T07:09:42;12.50;99.90
35690;DHT22;26977;44.830;-0.674;2022-11-15T07:12:08;12.40;99.90
35690;DHT22;26977;44.830;-0.674;2022-11-15T07:14:33;12.40;99.90
35690;DHT22;26977;44.830;-0.674;2022-11-15T07:16:59;12.50;99.90
35690;DHT22;26977;44.830;-0.674;2022-11-15T07:19:25;12.50;99.90
35690;DHT22;26977;44.830;-0.674;2022-11-15T07:21:51;12.50;99.90
35690;DHT22;26977;44.830;-0.674;2022-11-15T07:24:17;12.50;99.90
35690;DHT22;26977;44.830;-0.674;2022-11-15T07:26:42;12.50;99.90
35690;DHT22;26977;44.830;-0.674;2022-11-15T07:29:08;12.50;99.90
35690;DHT22;26977;44.830;-0.674;2022-11-15T07:31:33;12.50;99.90
35690;DHT22;26977;44.830;-0.674;2022-11-15T07:33:59;12.60;99.90
35690;DHT22;26977;44.830;-0.674;2022-11-15T07:36:25;12.60;99.90
35690;DHT22;26977;44.830;-0.674;2022-11-15T07:38:50;12.60;99.90
35690;DHT22;26977;44.830;-0.674;2022-11-15T07:41:16;12.70;99.90
35690;DHT22;26977;44.830;-0.674;2022-11-15T07:43:42;12.70;99.90
35690;DHT22;26977;44.830;-0.674;2022-11-15T07:46:08;12.80;99.90
35690;DHT22;26977;44.830;-0.674;2022-11-15T07:48:38;12.80;99.90
35690;DHT22;26977;44.830;-0.674;2022-11-15T07:51:06;12.90;99.90
35690;DHT22;26977;44.830;-0.674;2022-11-15T07:53:31;13.00;99.90
35690;DHT22;26977;44.830;-0.674;2022-11-15T07:55:57;13.00;99.90
35690;DHT22;26977;44.830;-0.674;2022-11-15T07:58:23;13.00;99.90
35690;DHT22;26977;44.830;-0.674;2022-11-15T08:00:48;13.10;99.90
35690;DHT22;26977;44.830;-0.674;2022-11-15T08:03:15;13.10;99.90
35690;DHT22;26977;44.830;-0.674;2022-11-15T08:05:42;13.20;99.90
35690;DHT22;26977;44.830;-0.674;2022-11-15T08:08:10;13.20;99.90
35690;DHT22;26977;44.830;-0.674;2022-11-15T08:10:36;13.20;99.90
35690;DHT22;26977;44.830;-0.674;2022-11-15T08:13:04;13.20;99.90
35690;DHT22;26977;44.830;-0.674;2022-11-15T08:15:31;13.20;99.90
35690;DHT22;26977;44.830;-0.674;2022-11-15T08:17:59;13.20;99.90
35690;DHT22;26977;44.830;-0.674;2022-11-15T08:20:26;13.20;99.90
35690;DHT22;26977;44.830;-0.674;2022-11-15T08:22:59;13.20;99.90
35690;DHT22;26977;44.830;-0.674;2022-11-15T08:25:26;13.20;99.90
35690;DHT22;26977;44.830;-0.674;2022-11-15T08:27:53;13.20;99.90
35690;DHT22;26977;44.830;-0.674;2022-11-15T08:30:19;13.30;99.90
35690;DHT22;26977;44.830;-0.674;2022-11-15T08:32:45;13.30;99.90
35690;DHT22;26977;44.830;-0.674;2022-11-15T08:35:10;13.40;99.90
35690;DHT22;26977;44.830;-0.674;2022-11-15T08:37:36;13.30;99.90
35690;DHT22;26977;44.830;-0.674;2022-11-15T08:40:03;13.40;99.90
35690;DHT22;26977;44.830;-0.674;2022-11-15T08:42:29;13.40;99.90
35690;DHT22;26977;44.830;-0.674;2022-11-15T08:44:54;13.50;99.90
35690;DHT22;26977;44.830;-0.674;2022-11-15T08:47:20;13.50;99.90
35690;DHT22;26977;44.830;-0.674;2022-11-15T08:49:46;13.60;99.90
35690;DHT22;26977;44.830;-0.674;2022-11-15T08:52:11;13.60;99.90
35690;DHT22;26977;44.830;-0.674;2022-11-15T08:54:37;13.60;99.90
35690;DHT22;26977;44.830;-0.674;2022-11-15T08:57:03;13.60;99.90
35690;DHT22;26977;44.830;-0.674;2022-11-15T08:59:28;13.60;99.90
35690;DHT22;26977;44.830;-0.674;2022-11-15T09:01:54;13.60;99.90
35690;DHT22;26977;44.830;-0.674;2022-11-15T09:04:20;13.60;99.90
35690;DHT22;26977;44.830;-0.674;2022-11-15T09:06:45;13.70;99.90
35690;DHT22;26977;44.830;-0.674;2022-11-15T09:09:11;13.70;99.90
35690;DHT22;26977;44.830;-0.674;2022-11-15T09:11:36;13.80;99.90
35690;DHT22;26977;44.830;-0.674;2022-11-15T09:14:02;13.80;99.90
35690;DHT22;26977;44.830;-0.674;2022-11-15T09:16:30;13.80;99.90
35690;DHT22;26977;44.830;-0.674;2022-11-15T09:18:56;13.90;99.90
35690;DHT22;26977;44.830;-0.674;2022-11-15T09:21:21;13.90;99.90
35690;DHT22;26977;44.830;-0.674;2022-11-15T09:23:50;14.00;99.90
35690;DHT22;26977;44.830;-0.674;2022-11-15T09:26:16;14.00;99.90
35690;DHT22;26977;44.830;-0.674;2022-11-15T09:28:42;14.00;99.90
35690;DHT22;26977;44.830;-0.674;2022-11-15T09:31:08;14.00;99.90
35690;DHT22;26977;44.830;-0.674;2022-11-15T09:33:34;14.00;99.90
35690;DHT22;26977;44.830;-0.674;2022-11-15T09:36:01;14.00;99.90
35690;DHT22;26977;44.830;-0.674;2022-11-15T09:38:28;14.00;99.90
35690;DHT22;26977;44.830;-0.674;2022-11-15T09:46:58;13.80;99.90
35690;DHT22;26977;44.830;-0.674;2022-11-15T09:49:28;13.80;99.90
35690;DHT22;26977;44.830;-0.674;2022-11-15T09:51:55;13.70;99.90
35690;DHT22;26977;44.830;-0.674;2022-11-15T09:54:39;13.60;99.90
35690;DHT22;26977;44.830;-0.674;2022-11-15T09:57:12;13.50;99.90
35690;DHT22;26977;44.830;-0.674;2022-11-15T09:59:59;13.40;99.90
35690;DHT22;26977;44.830;-0.674;2022-11-15T10:04:51;13.20;99.90
35690;DHT22;26977;44.830;-0.674;2022-11-15T10:07:34;13.20;99.90
35690;DHT22;26977;44.830;-0.674;2022-11-15T10:12:44;13.30;99.90
35690;DHT22;26977;44.830;-0.674;2022-11-15T10:15:14;13.50;99.90
35690;DHT22;26977;44.830;-0.674;2022-11-15T10:20:24;13.90;99.90
35690;DHT22;26977;44.830;-0.674;2022-11-15T10:23:01;13.90;99.90
35690;DHT22;26977;44.830;-0.674;2022-11-15T10:25:29;13.90;99.90
35690;DHT22;26977;44.830;-0.674;2022-11-15T10:30:38;14.00;99.90
35690;DHT22;26977;44.830;-0.674;2022-11-15T10:33:56;13.90;99.90
35690;DHT22;26977;44.830;-0.674;2022-11-15T10:38:51;14.00;99.90
35690;DHT22;26977;44.830;-0.674;2022-11-15T10:41:28;14.10;99.90
35690;DHT22;26977;44.830;-0.674;2022-11-15T10:44:10;14.10;99.90
35690;DHT22;26977;44.830;-0.674;2022-11-15T10:46:39;14.20;99.90
35690;DHT22;26977;44.830;-0.674;2022-11-15T10:49:26;14.30;99.90
35690;DHT22;26977;44.830;-0.674;2022-11-15T10:52:15;14.40;99.90
35690;DHT22;26977;44.830;-0.674;2022-11-15T10:54:45;14.60;99.90
35690;DHT22;26977;44.830;-0.674;2022-11-15T10:57:19;14.70;99.90
35690;DHT22;26977;44.830;-0.674;2022-11-15T10:59:54;14.70;99.90
35690;DHT22;26977;44.830;-0.674;2022-11-15T11:02:29;14.70;99.90
35690;DHT22;26977;44.830;-0.674;2022-11-15T11:04:55;14.60;99.90
35690;DHT22;26977;44.830;-0.674;2022-11-15T11:07:28;14.60;99.90
35690;DHT22;26977;44.830;-0.674;2022-11-15T11:10:20;14.70;99.90
35690;DHT22;26977;44.830;-0.674;2022-11-15T11:12:46;14.80;99.90
35690;DHT22;26977;44.830;-0.674;2022-11-15T11:15:14;14.80;99.90
35690;DHT22;26977;44.830;-0.674;2022-11-15T11:17:57;14.80;99.90
35690;DHT22;26977;44.830;-0.674;2022-11-15T11:20:40;14.90;99.90
35690;DHT22;26977;44.830;-0.674;2022-11-15T11:26:04;15.00;99.90
35690;DHT22;26977;44.830;-0.674;2022-11-15T11:29:09;15.20;99.90
35690;DHT22;26977;44.830;-0.674;2022-11-15T11:35:46;15.30;99.90
35690;DHT22;26977;44.830;-0.674;2022-11-15T11:38:56;15.40;99.90
35690;DHT22;26977;44.830;-0.674;2022-11-15T11:49:57;15.30;99.90
35690;DHT22;26977;44.830;-0.674;2022-11-15T11:57:46;15.50;99.90
35690;DHT22;26977;44.830;-0.674;2022-11-15T12:02:42;15.50;99.90
35690;DHT22;26977;44.830;-0.674;2022-11-15T12:05:35;15.50;99.90
35690;DHT22;26977;44.830;-0.674;2022-11-15T12:11:22;15.40;99.90
35690;DHT22;26977;44.830;-0.674;2022-11-15T12:13:56;15.30;99.90
35690;DHT22;26977;44.830;-0.674;2022-11-15T12:16:27;15.30;99.90
35690;DHT22;26977;44.830;-0.674;2022-11-15T12:18:54;15.30;99.90
35690;DHT22;26977;44.830;-0.674;2022-11-15T12:24:25;15.30;99.90
35690;DHT22;26977;44.830;-0.674;2022-11-15T12:27:08;15.40;99.90
35690;DHT22;26977;44.830;-0.674;2022-11-15T12:29:45;15.40;99.90
35690;DHT22;26977;44.830;-0.674;2022-11-15T12:32:34;15.50;99.90
35690;DHT22;26977;44.830;-0.674;2022-11-15T12:35:02;15.40;99.90
35690;DHT22;26977;44.830;-0.674;2022-11-15T12:48:44;15.30;99.90
35690;DHT22;26977;44.830;-0.674;2022-11-15T12:51:09;15.50;99.90
35690;DHT22;26977;44.830;-0.674;2022-11-15T12:53:35;15.70;99.90
35690;DHT22;26977;44.830;-0.674;2022-11-15T13:04:28;15.60;99.90
35690;DHT22;26977;44.830;-0.674;2022-11-15T13:07:05;15.70;99.90
35690;DHT22;26977;44.830;-0.674;2022-11-15T13:12:09;15.80;99.90
35690;DHT22;26977;44.830;-0.674;2022-11-15T13:17:34;15.80;99.90
35690;DHT22;26977;44.830;-0.674;2022-11-15T13:20:22;16.00;99.90
35690;DHT22;26977;44.830;-0.674;2022-11-15T13:23:13;16.10;99.90
35690;DHT22;26977;44.830;-0.674;2022-11-15T13:26:06;16.20;99.90
35690;DHT22;26977;44.830;-0.674;2022-11-15T13:28:38;16.40;99.90
35690;DHT22;26977;44.830;-0.674;2022-11-15T13:31:23;16.30;99.90
35690;DHT22;26977;44.830;-0.674;2022-11-15T13:33:50;16.20;99.90
35690;DHT22;26977;44.830;-0.674;2022-11-15T13:36:20;16.10;99.90
35690;DHT22;26977;44.830;-0.674;2022-11-15T13:39:12;16.20;99.90
35690;DHT22;26977;44.830;-0.674;2022-11-15T13:41:48;16.10;99.90
35690;DHT22;26977;44.830;-0.674;2022-11-15T13:44:28;16.10;99.90
35690;DHT22;26977;44.830;-0.674;2022-11-15T13:47:04;16.00;99.90
35690;DHT22;26977;44.830;-0.674;2022-11-15T13:49:31;16.00;99.90
35690;DHT22;26977;44.830;-0.674;2022-11-15T13:51:58;15.90;99.90
35690;DHT22;26977;44.830;-0.674;2022-11-15T13:54:29;15.80;99.90
35690;DHT22;26977;44.830;-0.674;2022-11-15T14:01:51;14.50;99.90
35690;DHT22;26977;44.830;-0.674;2022-11-15T14:04:21;14.20;99.90
35690;DHT22;26977;44.830;-0.674;2022-11-15T14:06:50;14.00;99.90
35690;DHT22;26977;44.830;-0.674;2022-11-15T14:09:40;14.00;99.90
35690;DHT22;26977;44.830;-0.674;2022-11-15T14:14:50;13.80;99.90
35690;DHT22;26977;44.830;-0.674;2022-11-15T14:17:41;13.70;99.90
35690;DHT22;26977;44.830;-0.674;2022-11-15T14:22:57;13.70;99.90
35690;DHT22;26977;44.830;-0.674;2022-11-15T14:25:28;13.60;99.90
35690;DHT22;26977;44.830;-0.674;2022-11-15T14:30:52;13.60;99.90
35690;DHT22;26977;44.830;-0.674;2022-11-15T14:33:30;13.60;99.90
35690;DHT22;26977;44.830;-0.674;2022-11-15T14:36:01;13.50;99.90
35690;DHT22;26977;44.830;-0.674;2022-11-15T14:38:27;13.30;99.90
35690;DHT22;26977;44.830;-0.674;2022-11-15T14:40:54;13.20;99.90
35690;DHT22;26977;44.830;-0.674;2022-11-15T14:43:21;13.10;99.90
35690;DHT22;26977;44.830;-0.674;2022-11-15T14:45:47;13.00;99.90
35690;DHT22;26977;44.830;-0.674;2022-11-15T14:48:13;13.00;99.90
35690;DHT22;26977;44.830;-0.674;2022-11-15T14:50:39;12.90;99.90
35690;DHT22;26977;44.830;-0.674;2022-11-15T14:53:05;12.90;99.90
35690;DHT22;26977;44.830;-0.674;2022-11-15T14:55:35;12.90;99.90
35690;DHT22;26977;44.830;-0.674;2022-11-15T14:58:05;12.90;99.90
35690;DHT22;26977;44.830;-0.674;2022-11-15T15:00:37;12.90;99.90
35690;DHT22;26977;44.830;-0.674;2022-11-15T15:03:04;12.90;99.90
35690;DHT22;26977;44.830;-0.674;2022-11-15T15:05:41;12.90;99.90
35690;DHT22;26977;44.830;-0.674;2022-11-15T15:08:08;12.90;99.90
35690;DHT22;26977;44.830;-0.674;2022-11-15T15:10:40;12.80;99.90
35690;DHT22;26977;44.830;-0.674;2022-11-15T15:13:22;12.80;99.90
35690;DHT22;26977;44.830;-0.674;2022-11-15T15:15:49;12.80;99.90
35690;DHT22;26977;44.830;-0.674;2022-11-15T15:18:14;12.80;99.90
35690;DHT22;26977;44.830;-0.674;2022-11-15T15:20:41;12.80;99.90
35690;DHT22;26977;44.830;-0.674;2022-11-15T15:23:19;12.80;99.90
35690;DHT22;26977;44.830;-0.674;2022-11-15T15:25:46;12.80;99.90
35690;DHT22;26977;44.830;-0.674;2022-11-15T15:28:13;12.70;99.90
35690;DHT22;26977;44.830;-0.674;2022-11-15T15:30:39;12.70;99.90
35690;DHT22;26977;44.830;-0.674;2022-11-15T15:33:04;12.60;99.90
35690;DHT22;26977;44.830;-0.674;2022-11-15T15:35:32;12.70;99.90
35690;DHT22;26977;44.830;-0.674;2022-11-15T15:37:59;12.60;99.90
35690;DHT22;26977;44.830;-0.674;2022-11-15T15:40:27;12.60;99.90
35690;DHT22;26977;44.830;-0.674;2022-11-15T15:42:53;12.60;99.90
35690;DHT22;26977;44.830;-0.674;2022-11-15T15:45:19;12.60;99.90
35690;DHT22;26977;44.830;-0.674;2022-11-15T15:47:45;12.60;99.90
35690;DHT22;26977;44.830;-0.674;2022-11-15T15:52:58;12.60;99.90
35690;DHT22;26977;44.830;-0.674;2022-11-15T15:55:24;12.60;99.90
35690;DHT22;26977;44.830;-0.674;2022-11-15T15:57:50;12.60;99.90
35690;DHT22;26977;44.830;-0.674;2022-11-15T16:00:17;12.60;99.90
35690;DHT22;26977;44.830;-0.674;2022-11-15T16:02:43;12.60;99.90
35690;DHT22;26977;44.830;-0.674;2022-11-15T16:05:10;12.60;99.90
35690;DHT22;26977;44.830;-0.674;2022-11-15T16:07:37;12.60;99.90
35690;DHT22;26977;44.830;-0.674;2022-11-15T16:12:45;12.60;99.90
35690;DHT22;26977;44.830;-0.674;2022-11-15T16:15:11;12.60;99.90
35690;DHT22;26977;44.830;-0.674;2022-11-15T16:17:45;12.60;99.90
35690;DHT22;26977;44.830;-0.674;2022-11-15T16:20:34;12.70;99.90
35690;DHT22;26977;44.830;-0.674;2022-11-15T16:23:02;12.60;99.90
35690;DHT22;26977;44.830;-0.674;2022-11-15T16:25:28;12.70;99.90
35690;DHT22;26977;44.830;-0.674;2022-11-15T16:27:54;12.70;99.90
35690;DHT22;26977;44.830;-0.674;2022-11-15T16:30:21;12.70;99.90
35690;DHT22;26977;44.830;-0.674;2022-11-15T16:32:47;12.80;99.90
35690;DHT22;26977;44.830;-0.674;2022-11-15T16:35:14;12.70;99.90
35690;DHT22;26977;44.830;-0.674;2022-11-15T16:37:41;12.70;99.90
35690;DHT22;26977;44.830;-0.674;2022-11-15T16:40:26;12.70;99.90
35690;DHT22;26977;44.830;-0.674;2022-11-15T16:42:52;12.70;99.90
35690;DHT22;26977;44.830;-0.674;2022-11-15T16:45:18;12.70;99.90
35690;DHT22;26977;44.830;-0.674;2022-11-15T16:47:43;12.60;99.90
35690;DHT22;26977;44.830;-0.674;2022-11-15T16:50:20;12.70;99.90
35690;DHT22;26977;44.830;-0.674;2022-11-15T16:52:49;12.70;99.90
35690;DHT22;26977;44.830;-0.674;2022-11-15T16:55:15;12.70;99.90
35690;DHT22;26977;44.830;-0.674;2022-11-15T16:57:41;12.70;99.90
35690;DHT22;26977;44.830;-0.674;2022-11-15T17:00:12;12.70;99.90
35690;DHT22;26977;44.830;-0.674;2022-11-15T17:02:46;12.70;99.90
35690;DHT22;26977;44.830;-0.674;2022-11-15T17:05:13;12.70;99.90
35690;DHT22;26977;44.830;-0.674;2022-11-15T17:07:39;12.70;99.90
35690;DHT22;26977;44.830;-0.674;2022-11-15T17:10:06;12.70;99.90
35690;DHT22;26977;44.830;-0.674;2022-11-15T17:12:33;12.80;99.90
35690;DHT22;26977;44.830;-0.674;2022-11-15T17:14:59;12.80;99.90
35690;DHT22;26977;44.830;-0.674;2022-11-15T17:17:24;12.80;99.90
35690;DHT22;26977;44.830;-0.674;2022-11-15T17:19:51;12.80;99.90
35690;DHT22;26977;44.830;-0.674;2022-11-15T17:22:18;12.80;99.90
35690;DHT22;26977;44.830;-0.674;2022-11-15T17:24:44;12.80;99.90
35690;DHT22;26977;44.830;-0.674;2022-11-15T17:27:09;12.80;99.90
35690;DHT22;26977;44.830;-0.674;2022-11-15T17:29:35;12.70;99.90
35690;DHT22;26977;44.830;-0.674;2022-11-15T17:32:01;12.80;99.90
35690;DHT22;26977;44.830;-0.674;2022-11-15T17:34:26;12.70;99.90
35690;DHT22;26977;44.830;-0.674;2022-11-15T17:36:52;12.70;99.90
35690;DHT22;26977;44.830;-0.674;2022-11-15T17:39:18;12.70;99.90
35690;DHT22;26977;44.830;-0.674;2022-11-15T17:41:45;12.70;99.90